sensor_id;sensor_type;location;lat;lon;timestamp;pressure;altitude;pressure_sealevel;temperature;humidity
9853;BME280;4965;43.238;27.864;2022-09-02T00:01:35;100025.34;;;20.74;100.00
9853;BME280;4965;43.238;27.864;2022-09-02T00:04:05;100050.38;;;20.81;100.00
9853;BME280;4965;43.238;27.864;2022-09-02T00:06:33;100044.41;;;20.79;100.00
9853;BME280;4965;43.238;27.864;2022-09-02T00:09:01;100041.34;;;20.89;100.00
9853;BME280;4965;43.238;27.864;2022-09-02T00:11:32;100038.44;;;20.84;100.00
9853;BME280;4965;43.238;27.864;2022-09-02T00:14:01;100049.19;;;20.84;100.00
9853;BME280;4965;43.238;27.864;2022-09-02T00:16:29;100043.41;;;20.87;100.00
9853;BME280;4965;43.238;27.864;2022-09-02T00:18:58;100037.44;;;20.91;100.00
9853;BME280;4965;43.238;27.864;2022-09-02T00:21:27;100039.72;;;20.95;100.00
9853;BME280;4965;43.238;27.864;2022-09-02T00:23:54;100041.41;;;21.02;100.00
9853;BME280;4965;43.238;27.864;2022-09-02T00:26:21;100029.34;;;20.85;100.00
9853;BME280;4965;43.238;27.864;2022-09-02T00:28:50;100047.59;;;20.96;100.00
9853;BME280;4965;43.238;27.864;2022-09-02T00:31:17;100044.22;;;20.81;100.00
9853;BME280;4965;43.238;27.864;2022-09-02T00:33:44;100045.91;;;20.95;100.00
9853;BME280;4965;43.238;27.864;2022-09-02T00:36:12;100043.84;;;20.97;100.00
9853;BME280;4965;43.238;27.864;2022-09-02T00:38:39;100040.56;;;21.02;100.00
9853;BME280;4965;43.238;27.864;2022-09-02T00:41:07;100032.09;;;21.05;100.00
9853;BME280;4965;43.238;27.864;2022-09-02T00:43:41;100046.16;;;21.07;100.00
9853;BME280;4965;43.238;27.864;2022-09-02T00:46:12;100033.56;;;21.07;100.00
9853;BME280;4965;43.238;27.864;2022-09-02T00:48:42;100031.50;;;21.09;100.00
9853;BME280;4965;43.238;27.864;2022-09-02T00:51:13;100024.03;;;21.05;100.00
9853;BME280;4965;43.238;27.864;2022-09-02T00:53:43;100028.03;;;21.15;100.00
9853;BME280;4965;43.238;27.864;2022-09-02T00:56:14;100027.03;;;21.23;100.00
9853;BME280;4965;43.238;27.864;2022-09-02T00:58:45;100033.69;;;21.40;100.00
9853;BME280;4965;43.238;27.864;2022-09-02T01:01:15;100023.97;;;21.39;100.00
9853;BME280;4965;43.238;27.864;2022-09-02T01:03:42;100037.84;;;21.49;100.00
9853;BME280;4965;43.238;27.864;2022-09-02T01:06:10;100034.31;;;21.42;100.00
9853;BME280;4965;43.238;27.864;2022-09-02T01:08:42;100032.00;;;21.26;100.00
9853;BME280;4965;43.238;27.864;2022-09-02T01:11:11;100038.28;;;21.05;100.00
9853;BME280;4965;43.238;27.864;2022-09-02T01:13:40;100045.22;;;21.21;100.00
9853;BME280;4965;43.238;27.864;2022-09-02T01:16:12;100040.25;;;21.18;100.00
9853;BME280;4965;43.238;27.864;2022-09-02T01:18:44;100036.31;;;21.14;100.00
9853;BME280;4965;43.238;27.864;2022-09-02T01:21:13;100023.97;;;20.85;100.00
9853;BME280;4965;43.238;27.864;2022-09-02T01:23:41;100037.84;;;20.95;100.00
9853;BME280;4965;43.238;27.864;2022-09-02T01:26:08;100028.38;;;21.06;100.00
9853;BME280;4965;43.238;27.864;2022-09-02T01:28:36;100040.97;;;21.05;100.00
9853;BME280;4965;43.238;27.864;2022-09-02T01:31:03;100035.84;;;21.10;100.00
9853;BME280;4965;43.238;27.864;2022-09-02T01:33:30;100035.41;;;21.07;100.00
9853;BME280;4965;43.238;27.864;2022-09-02T01:35:57;100028.88;;;21.16;100.00
9853;BME280;4965;43.238;27.864;2022-09-02T01:38:25;100034.69;;;21.19;100.00
9853;BME280;4965;43.238;27.864;2022-09-02T01:40:53;100027.03;;;21.36;100.00
9853;BME280;4965;43.238;27.864;2022-09-02T01:43:22;100003.44;;;21.25;100.00
9853;BME280;4965;43.238;27.864;2022-09-02T01:45:52;100031.22;;;21.52;100.00
9853;BME280;4965;43.238;27.864;2022-09-02T01:48:19;100019.66;;;21.71;100.00
9853;BME280;4965;43.238;27.864;2022-09-02T01:50:52;100019.69;;;21.84;100.00
9853;BME280;4965;43.238;27.864;2022-09-02T01:53:19;100016.78;;;21.85;100.00
9853;BME280;4965;43.238;27.864;2022-09-02T01:55:46;100011.84;;;22.02;100.00
9853;BME280;4965;43.238;27.864;2022-09-02T01:58:15;100006.25;;;22.10;100.00
9853;BME280;4965;43.238;27.864;2022-09-02T02:00:42;99996.72;;;22.14;100.00
9853;BME280;4965;43.238;27.864;2022-09-02T02:03:08;100007.25;;;22.22;100.00
9853;BME280;4965;43.238;27.864;2022-09-02T02:05:35;100009.13;;;22.22;100.00
9853;BME280;4965;43.238;27.864;2022-09-02T02:08:03;99996.06;;;22.25;100.00
9853;BME280;4965;43.238;27.864;2022-09-02T02:10:31;99996.09;;;22.19;100.00
9853;BME280;4965;43.238;27.864;2022-09-02T02:12:58;100003.13;;;22.26;100.00
9853;BME280;4965;43.238;27.864;2022-09-02T02:15:28;100000.19;;;22.35;100.00
9853;BME280;4965;43.238;27.864;2022-09-02T02:17:55;99990.09;;;22.23;100.00
9853;BME280;4965;43.238;27.864;2022-09-02T02:20:22;99968.34;;;22.12;100.00
9853;BME280;4965;43.238;27.864;2022-09-02T02:22:51;99995.22;;;22.38;100.00
9853;BME280;4965;43.238;27.864;2022-09-02T02:25:19;99986.97;;;22.26;100.00
9853;BME280;4965;43.238;27.864;2022-09-02T02:27:46;99993.59;;;22.24;100.00
9853;BME280;4965;43.238;27.864;2022-09-02T02:30:15;100001.66;;;22.17;100.00
9853;BME280;4965;43.238;27.864;2022-09-02T02:32:44;100000.63;;;22.25;100.00
9853;BME280;4965;43.238;27.864;2022-09-02T02:35:13;100018.06;;;22.16;100.00
9853;BME280;4965;43.238;27.864;2022-09-02T02:37:40;99995.06;;;22.07;100.00
9853;BME280;4965;43.238;27.864;2022-09-02T02:40:09;99996.72;;;22.08;100.00
9853;BME280;4965;43.238;27.864;2022-09-02T02:42:36;100000.44;;;22.07;100.00
9853;BME280;4965;43.238;27.864;2022-09-02T02:45:04;99991.97;;;21.97;100.00
9853;BME280;4965;43.238;27.864;2022-09-02T02:47:36;99991.97;;;21.97;100.00
9853;BME280;4965;43.238;27.864;2022-09-02T02:50:07;99992.38;;;22.07;100.00
9853;BME280;4965;43.238;27.864;2022-09-02T02:52:34;99992.38;;;21.94;100.00
9853;BME280;4965;43.238;27.864;2022-09-02T02:55:01;99991.97;;;21.97;100.00
9853;BME280;4965;43.238;27.864;2022-09-02T02:57:29;100003.97;;;21.94;100.00
9853;BME280;4965;43.238;27.864;2022-09-02T02:59:56;99986.13;;;21.86;100.00
9853;BME280;4965;43.238;27.864;2022-09-02T03:02:23;99997.31;;;21.90;100.00
9853;BME280;4965;43.238;27.864;2022-09-02T03:04:50;100001.06;;;21.89;100.00
9853;BME280;4965;43.238;27.864;2022-09-02T03:07:20;100013.28;;;21.92;100.00
9853;BME280;4965;43.238;27.864;2022-09-02T03:09:47;100017.22;;;21.89;100.00
9853;BME280;4965;43.238;27.864;2022-09-02T03:12:14;100016.16;;;21.83;100.00
9853;BME280;4965;43.238;27.864;2022-09-02T03:14:41;100014.06;;;21.79;100.00
9853;BME280;4965;43.238;27.864;2022-09-02T03:17:08;99988.00;;;21.60;100.00
9853;BME280;4965;43.238;27.864;2022-09-02T03:19:35;100012.44;;;21.84;100.00
9853;BME280;4965;43.238;27.864;2022-09-02T03:22:03;100008.91;;;21.77;100.00
9853;BME280;4965;43.238;27.864;2022-09-02T03:24:31;100011.81;;;21.69;100.00
9853;BME280;4965;43.238;27.864;2022-09-02T03:26:59;100015.53;;;21.68;100.00
9853;BME280;4965;43.238;27.864;2022-09-02T03:29:25;100018.41;;;21.60;100.00
9853;BME280;4965;43.238;27.864;2022-09-02T03:31:52;99989.22;;;21.44;100.00
9853;BME280;4965;43.238;27.864;2022-09-02T03:34:19;100022.34;;;21.58;100.00
9853;BME280;4965;43.238;27.864;2022-09-02T03:36:46;100015.53;;;21.68;100.00
9853;BME280;4965;43.238;27.864;2022-09-02T03:39:14;99986.34;;;21.52;100.00
9853;BME280;4965;43.238;27.864;2022-09-02T03:41:42;100002.28;;;21.73;100.00
9853;BME280;4965;43.238;27.864;2022-09-02T03:44:10;100024.44;;;21.82;100.00
9853;BME280;4965;43.238;27.864;2022-09-02T03:46:37;100007.66;;;21.80;100.00
9853;BME280;4965;43.238;27.864;2022-09-02T03:49:04;100018.25;;;21.95;100.00
9853;BME280;4965;43.238;27.864;2022-09-02T03:51:31;100011.84;;;21.96;100.00
9853;BME280;4965;43.238;27.864;2022-09-02T03:53:58;100011.41;;;21.99;100.00
9853;BME280;4965;43.238;27.864;2022-09-02T03:56:27;100018.88;;;22.16;100.00
9853;BME280;4965;43.238;27.864;2022-09-02T03:58:55;100012.41;;;22.37;100.00
9853;BME280;4965;43.238;27.864;2022-09-02T04:01:24;100025.81;;;22.76;100.00
9853;BME280;4965;43.238;27.864;2022-09-02T04:03:52;100019.38;;;22.77;100.00
9853;BME280;4965;43.238;27.864;2022-09-02T04:06:21;100010.16;;;22.98;100.00
9853;BME280;4965;43.238;27.864;2022-09-02T04:08:49;100024.50;;;23.68;100.00
9853;BME280;4965;43.238;27.864;2022-09-02T04:11:18;100024.09;;;24.63;100.00
9853;BME280;4965;43.238;27.864;2022-09-02T04:13:47;100016.91;;;25.24;100.00
9853;BME280;4965;43.238;27.864;2022-09-02T04:16:18;100021.25;;;25.96;100.00
9853;BME280;4965;43.238;27.864;2022-09-02T04:18:46;100017.53;;;26.55;100.00
9853;BME280;4965;43.238;27.864;2022-09-02T04:21:13;100023.66;;;26.50;100.00
9853;BME280;4965;43.238;27.864;2022-09-02T04:23:40;100021.72;;;27.54;100.00
9853;BME280;4965;43.238;27.864;2022-09-02T04:26:09;100025.22;;;28.33;100.00
9853;BME280;4965;43.238;27.864;2022-09-02T04:28:36;100032.84;;;28.91;100.00
9853;BME280;4965;43.238;27.864;2022-09-02T04:31:04;100028.75;;;28.89;100.00
9853;BME280;4965;43.238;27.864;2022-09-02T04:33:33;100027.88;;;29.31;100.00
9853;BME280;4965;43.238;27.864;2022-09-02T04:36:03;100027.72;;;29.70;100.00
9853;BME280;4965;43.238;27.864;2022-09-02T04:38:31;100030.06;;;29.08;100.00
9853;BME280;4965;43.238;27.864;2022-09-02T04:40:58;100035.22;;;30.16;100.00
9853;BME280;4965;43.238;27.864;2022-09-02T04:43:25;100028.63;;;30.07;100.00
9853;BME280;4965;43.238;27.864;2022-09-02T04:45:51;100031.63;;;30.43;100.00
9853;BME280;4965;43.238;27.864;2022-09-02T04:48:18;100027.94;;;29.90;100.00
9853;BME280;4965;43.238;27.864;2022-09-02T04:50:49;100039.19;;;29.99;100.00
9853;BME280;4965;43.238;27.864;2022-09-02T04:53:16;100021.41;;;29.91;100.00
9853;BME280;4965;43.238;27.864;2022-09-02T04:55:42;100034.06;;;30.91;100.00
9853;BME280;4965;43.238;27.864;2022-09-02T04:58:10;100033.41;;;31.31;100.00
9853;BME280;4965;43.238;27.864;2022-09-02T05:00:37;100047.81;;;31.11;100.00
9853;BME280;4965;43.238;27.864;2022-09-02T05:03:04;100024.41;;;30.32;100.00
9853;BME280;4965;43.238;27.864;2022-09-02T05:05:32;100027.28;;;30.10;100.00
9853;BME280;4965;43.238;27.864;2022-09-02T05:08:00;100022.22;;;31.28;100.00
9853;BME280;4965;43.238;27.864;2022-09-02T05:10:29;100029.41;;;32.30;100.00
9853;BME280;4965;43.238;27.864;2022-09-02T05:12:57;100032.16;;;32.09;100.00
9853;BME280;4965;43.238;27.864;2022-09-02T05:15:24;100025.84;;;31.53;100.00
9853;BME280;4965;43.238;27.864;2022-09-02T05:17:53;100046.63;;;31.70;100.00
9853;BME280;4965;43.238;27.864;2022-09-02T05:20:20;100049.63;;;31.83;100.00
9853;BME280;4965;43.238;27.864;2022-09-02T05:22:48;100039.47;;;32.70;97.22
9853;BME280;4965;43.238;27.864;2022-09-02T05:25:17;100045.81;;;31.84;100.00
9853;BME280;4965;43.238;27.864;2022-09-02T05:27:44;100050.66;;;31.52;100.00
9853;BME280;4965;43.238;27.864;2022-09-02T05:30:11;100048.16;;;31.40;100.00
9853;BME280;4965;43.238;27.864;2022-09-02T05:32:38;100025.56;;;32.31;100.00
9853;BME280;4965;43.238;27.864;2022-09-02T05:35:07;100043.88;;;31.59;100.00
9853;BME280;4965;43.238;27.864;2022-09-02T05:37:34;100042.19;;;31.43;100.00
9853;BME280;4965;43.238;27.864;2022-09-02T05:40:02;100037.59;;;31.54;100.00
9853;BME280;4965;43.238;27.864;2022-09-02T05:42:32;100045.34;;;30.53;100.00
9853;BME280;4965;43.238;27.864;2022-09-02T05:44:59;100045.50;;;29.77;100.00
9853;BME280;4965;43.238;27.864;2022-09-02T05:47:26;100052.91;;;29.50;100.00
9853;BME280;4965;43.238;27.864;2022-09-02T05:49:53;100045.63;;;29.34;100.00
9853;BME280;4965;43.238;27.864;2022-09-02T05:52:20;100051.03;;;29.07;100.00
9853;BME280;4965;43.238;27.864;2022-09-02T05:54:47;100061.41;;;29.10;100.00
9853;BME280;4965;43.238;27.864;2022-09-02T05:57:16;100052.41;;;28.88;100.00
9853;BME280;4965;43.238;27.864;2022-09-02T05:59:44;100058.72;;;28.55;100.00
9853;BME280;4965;43.238;27.864;2022-09-02T06:02:14;100053.41;;;28.10;100.00
9853;BME280;4965;43.238;27.864;2022-09-02T06:04:44;100044.97;;;27.78;100.00
9853;BME280;4965;43.238;27.864;2022-09-02T06:07:12;100055.13;;;28.00;100.00
9853;BME280;4965;43.238;27.864;2022-09-02T06:09:40;100052.09;;;28.13;100.00
9853;BME280;4965;43.238;27.864;2022-09-02T06:12:09;100062.47;;;28.16;100.00
9853;BME280;4965;43.238;27.864;2022-09-02T06:14:37;100036.84;;;28.12;100.00
9853;BME280;4965;43.238;27.864;2022-09-02T06:17:07;100050.84;;;28.20;100.00
9853;BME280;4965;43.238;27.864;2022-09-02T06:19:34;100059.09;;;28.42;100.00
9853;BME280;4965;43.238;27.864;2022-09-02T06:22:02;100055.38;;;28.31;100.00
9853;BME280;4965;43.238;27.864;2022-09-02T06:24:29;100069.50;;;28.50;100.00
9853;BME280;4965;43.238;27.864;2022-09-02T06:26:57;100061.59;;;28.65;100.00
9853;BME280;4965;43.238;27.864;2022-09-02T06:29:26;100074.16;;;28.50;100.00
9853;BME280;4965;43.238;27.864;2022-09-02T06:31:53;100082.22;;;28.28;100.00
9853;BME280;4965;43.238;27.864;2022-09-02T06:34:22;100067.06;;;28.32;100.00
9853;BME280;4965;43.238;27.864;2022-09-02T06:36:51;100073.22;;;27.94;100.00
9853;BME280;4965;43.238;27.864;2022-09-02T06:39:20;100067.47;;;27.90;100.00
9853;BME280;4965;43.238;27.864;2022-09-02T06:41:48;100064.34;;;27.99;100.00
9853;BME280;4965;43.238;27.864;2022-09-02T06:44:16;100082.09;;;28.18;100.00
9853;BME280;4965;43.238;27.864;2022-09-02T06:46:45;100078.81;;;28.04;100.00
9853;BME280;4965;43.238;27.864;2022-09-02T06:49:14;100075.72;;;27.96;100.00
9853;BME280;4965;43.238;27.864;2022-09-02T06:51:46;100083.34;;;27.54;100.00
9853;BME280;4965;43.238;27.864;2022-09-02T06:54:16;100096.75;;;27.32;100.00
9853;BME280;4965;43.238;27.864;2022-09-02T06:56:44;100075.59;;;27.45;100.00
9853;BME280;4965;43.238;27.864;2022-09-02T06:59:12;100076.03;;;27.99;100.00
9853;BME280;4965;43.238;27.864;2022-09-02T07:01:39;100084.72;;;27.84;100.00
9853;BME280;4965;43.238;27.864;2022-09-02T07:04:07;100074.47;;;28.03;100.00
9853;BME280;4965;43.238;27.864;2022-09-02T07:06:53;100082.50;;;27.81;100.00
9853;BME280;4965;43.238;27.864;2022-09-02T07:09:23;100062.66;;;27.64;100.00
9853;BME280;4965;43.238;27.864;2022-09-02T07:11:56;100098.03;;;27.41;100.00
9853;BME280;4965;43.238;27.864;2022-09-02T07:14:24;100092.94;;;27.05;100.00
9853;BME280;4965;43.238;27.864;2022-09-02T07:16:53;100067.25;;;26.72;100.00
9853;BME280;4965;43.238;27.864;2022-09-02T07:19:22;100108.66;;;26.68;100.00
9853;BME280;4965;43.238;27.864;2022-09-02T07:21:49;100092.78;;;27.11;100.00
9853;BME280;4965;43.238;27.864;2022-09-02T07:24:18;100110.50;;;27.14;100.00
9853;BME280;4965;43.238;27.864;2022-09-02T07:26:46;100082.84;;;27.28;100.00
9853;BME280;4965;43.238;27.864;2022-09-02T07:29:14;100091.28;;;27.04;100.00
9853;BME280;4965;43.238;27.864;2022-09-02T07:31:43;100094.19;;;27.25;100.00
9853;BME280;4965;43.238;27.864;2022-09-02T07:34:12;100071.94;;;27.40;100.00
9853;BME280;4965;43.238;27.864;2022-09-02T07:36:40;100065.06;;;27.94;100.00
9853;BME280;4965;43.238;27.864;2022-09-02T07:39:10;100062.13;;;28.12;100.00
9853;BME280;4965;43.238;27.864;2022-09-02T07:41:40;100029.91;;;28.04;100.00
9853;BME280;4965;43.238;27.864;2022-09-02T07:44:08;100081.34;;;27.77;100.00
9853;BME280;4965;43.238;27.864;2022-09-02T07:46:36;100076.09;;;27.31;100.00
9853;BME280;4965;43.238;27.864;2022-09-02T07:49:06;100043.56;;;26.68;100.00
9853;BME280;4965;43.238;27.864;2022-09-02T07:51:35;100086.59;;;26.76;100.00
9853;BME280;4965;43.238;27.864;2022-09-02T07:54:03;100089.31;;;26.52;100.00
9853;BME280;4965;43.238;27.864;2022-09-02T07:56:31;100119.00;;;26.71;100.00
9853;BME280;4965;43.238;27.864;2022-09-02T07:59:01;100093.91;;;26.98;100.00
9853;BME280;4965;43.238;27.864;2022-09-02T08:01:29;100038.47;;;26.71;100.00
9853;BME280;4965;43.238;27.864;2022-09-02T08:03:56;100053.38;;;27.20;100.00
9853;BME280;4965;43.238;27.864;2022-09-02T08:06:23;100091.03;;;27.57;100.00
9853;BME280;4965;43.238;27.864;2022-09-02T08:08:51;100038.44;;;27.34;100.00
9853;BME280;4965;43.238;27.864;2022-09-02T08:11:19;100101.13;;;27.33;100.00
9853;BME280;4965;43.238;27.864;2022-09-02T08:13:46;100125.41;;;27.39;100.00
9853;BME280;4965;43.238;27.864;2022-09-02T08:16:30;100093.03;;;27.50;100.00
9853;BME280;4965;43.238;27.864;2022-09-02T08:18:57;100031.38;;;27.33;100.00
9853;BME280;4965;43.238;27.864;2022-09-02T08:21:24;100071.44;;;27.55;100.00
9853;BME280;4965;43.238;27.864;2022-09-02T08:23:51;100053.69;;;27.24;100.00
9853;BME280;4965;43.238;27.864;2022-09-02T08:26:18;100082.34;;;27.31;100.00
9853;BME280;4965;43.238;27.864;2022-09-02T08:28:46;100076.53;;;27.39;100.00
9853;BME280;4965;43.238;27.864;2022-09-02T08:31:13;100068.78;;;27.31;100.00
9853;BME280;4965;43.238;27.864;2022-09-02T08:33:41;100081.59;;;27.08;100.00
9853;BME280;4965;43.238;27.864;2022-09-02T08:36:09;100112.31;;;26.85;100.00
9853;BME280;4965;43.238;27.864;2022-09-02T08:38:40;100062.41;;;26.74;100.00
9853;BME280;4965;43.238;27.864;2022-09-02T08:41:13;100040.34;;;26.82;100.00
9853;BME280;4965;43.238;27.864;2022-09-02T08:43:44;100082.22;;;26.98;100.00
9853;BME280;4965;43.238;27.864;2022-09-02T08:46:13;100077.75;;;26.57;100.00
9853;BME280;4965;43.238;27.864;2022-09-02T08:48:48;100040.38;;;26.71;100.00
9853;BME280;4965;43.238;27.864;2022-09-02T08:51:19;100064.09;;;26.52;100.00
9853;BME280;4965;43.238;27.864;2022-09-02T08:53:50;100041.69;;;26.57;100.00
9853;BME280;4965;43.238;27.864;2022-09-02T08:56:19;100103.56;;;26.94;100.00
9853;BME280;4965;43.238;27.864;2022-09-02T08:58:49;100074.41;;;27.13;100.00
9853;BME280;4965;43.238;27.864;2022-09-02T09:01:24;100028.81;;;26.75;100.00
9853;BME280;4965;43.238;27.864;2022-09-02T09:04:19;100050.09;;;27.18;100.00
9853;BME280;4965;43.238;27.864;2022-09-02T09:07:03;100086.66;;;27.56;100.00
9853;BME280;4965;43.238;27.864;2022-09-02T09:09:41;100067.22;;;27.35;100.00
9853;BME280;4965;43.238;27.864;2022-09-02T09:12:17;100097.53;;;27.56;100.00
9853;BME280;4965;43.238;27.864;2022-09-02T09:14:55;100048.34;;;27.40;100.00
9853;BME280;4965;43.238;27.864;2022-09-02T09:17:27;100074.56;;;27.63;100.00
9853;BME280;4965;43.238;27.864;2022-09-02T09:20:02;100077.84;;;27.49;100.00
9853;BME280;4965;43.238;27.864;2022-09-02T09:22:33;100068.69;;;27.83;100.00
9853;BME280;4965;43.238;27.864;2022-09-02T09:25:08;100087.81;;;27.60;100.00
9853;BME280;4965;43.238;27.864;2022-09-02T09:27:37;100089.25;;;27.79;100.00
9853;BME280;4965;43.238;27.864;2022-09-02T09:30:25;100075.09;;;27.77;100.00
9853;BME280;4965;43.238;27.864;2022-09-02T09:32:53;100060.78;;;27.81;100.00
9853;BME280;4965;43.238;27.864;2022-09-02T09:35:23;100045.50;;;28.09;100.00
9853;BME280;4965;43.238;27.864;2022-09-02T09:37:54;100033.91;;;28.68;100.00
9853;BME280;4965;43.238;27.864;2022-09-02T09:40:27;100059.44;;;28.84;100.00
9853;BME280;4965;43.238;27.864;2022-09-02T09:42:57;100084.22;;;28.32;100.00
9853;BME280;4965;43.238;27.864;2022-09-02T09:45:29;100044.59;;;28.75;100.00
9853;BME280;4965;43.238;27.864;2022-09-02T09:48:19;100066.03;;;28.88;100.00
9853;BME280;4965;43.238;27.864;2022-09-02T09:51:13;100037.03;;;28.99;100.00
9853;BME280;4965;43.238;27.864;2022-09-02T09:53:42;100059.78;;;28.93;100.00
9853;BME280;4965;43.238;27.864;2022-09-02T09:56:31;100067.63;;;28.89;100.00
9853;BME280;4965;43.238;27.864;2022-09-02T09:59:00;100048.97;;;28.98;100.00
9853;BME280;4965;43.238;27.864;2022-09-02T10:01:29;100054.91;;;29.16;100.00
9853;BME280;4965;43.238;27.864;2022-09-02T10:03:58;100060.50;;;28.66;100.00
9853;BME280;4965;43.238;27.864;2022-09-02T10:06:40;100025.84;;;28.18;100.00
9853;BME280;4965;43.238;27.864;2022-09-02T10:09:29;99999.84;;;27.77;100.00
9853;BME280;4965;43.238;27.864;2022-09-02T10:11:59;100009.97;;;27.49;100.00
9853;BME280;4965;43.238;27.864;2022-09-02T10:14:32;99999.78;;;27.44;100.00
9853;BME280;4965;43.238;27.864;2022-09-02T10:17:08;100004.28;;;28.00;100.00
9853;BME280;4965;43.238;27.864;2022-09-02T10:19:46;99985.03;;;28.02;100.00
9853;BME280;4965;43.238;27.864;2022-09-02T10:25:25;99995.97;;;27.73;100.00
9853;BME280;4965;43.238;27.864;2022-09-02T10:27:59;99968.59;;;27.75;100.00
9853;BME280;4965;43.238;27.864;2022-09-02T10:30:30;99956.75;;;27.64;100.00
9853;BME280;4965;43.238;27.864;2022-09-02T10:33:15;99981.81;;;27.55;100.00
9853;BME280;4965;43.238;27.864;2022-09-02T10:35:47;99960.75;;;27.78;100.00
9853;BME280;4965;43.238;27.864;2022-09-02T10:38:36;99981.59;;;27.89;100.00
9853;BME280;4965;43.238;27.864;2022-09-02T10:41:21;99985.44;;;27.77;100.00
9853;BME280;4965;43.238;27.864;2022-09-02T10:44:01;99989.50;;;27.91;100.00
9853;BME280;4965;43.238;27.864;2022-09-02T10:46:39;99937.44;;;27.99;100.00
9853;BME280;4965;43.238;27.864;2022-09-02T10:49:15;99947.91;;;28.07;100.00
9853;BME280;4965;43.238;27.864;2022-09-02T10:51:50;99985.31;;;28.38;100.00
9853;BME280;4965;43.238;27.864;2022-09-02T10:54:32;99947.00;;;28.18;100.00
9853;BME280;4965;43.238;27.864;2022-09-02T10:57:08;99956.06;;;28.07;100.00
9853;BME280;4965;43.238;27.864;2022-09-02T10:59:39;99967.66;;;27.86;100.00
9853;BME280;4965;43.238;27.864;2022-09-02T11:02:13;99979.13;;;27.88;100.00
9853;BME280;4965;43.238;27.864;2022-09-02T11:04:46;99976.06;;;28.01;100.00
9853;BME280;4965;43.238;27.864;2022-09-02T11:07:19;100021.69;;;28.32;100.00
9853;BME280;4965;43.238;27.864;2022-09-02T11:09:51;99992.22;;;27.91;100.00
9853;BME280;4965;43.238;27.864;2022-09-02T11:12:24;99993.69;;;27.99;100.00
9853;BME280;4965;43.238;27.864;2022-09-02T11:14:58;99989.16;;;28.21;100.00
9853;BME280;4965;43.238;27.864;2022-09-02T11:17:35;99961.41;;;27.85;100.00
9853;BME280;4965;43.238;27.864;2022-09-02T11:20:12;100017.97;;;28.05;100.00
9853;BME280;4965;43.238;27.864;2022-09-02T11:22:50;100020.59;;;27.67;100.00
9853;BME280;4965;43.238;27.864;2022-09-02T11:25:22;99991.63;;;27.72;100.00
9853;BME280;4965;43.238;27.864;2022-09-02T11:27:55;99992.22;;;27.91;100.00
9853;BME280;4965;43.238;27.864;2022-09-02T11:30:33;99974.84;;;27.75;100.00
9853;BME280;4965;43.238;27.864;2022-09-02T11:33:12;99979.69;;;27.57;100.00
9853;BME280;4965;43.238;27.864;2022-09-02T11:35:40;100002.34;;;27.79;100.00
9853;BME280;4965;43.238;27.864;2022-09-02T11:38:20;100006.34;;;27.93;100.00
9853;BME280;4965;43.238;27.864;2022-09-02T11:41:10;99974.78;;;27.42;100.00
9853;BME280;4965;43.238;27.864;2022-09-02T11:43:45;99969.22;;;26.80;100.00
9853;BME280;4965;43.238;27.864;2022-09-02T11:46:33;99950.97;;;26.24;100.00
9853;BME280;4965;43.238;27.864;2022-09-02T11:49:23;99990.56;;;26.37;100.00
9853;BME280;4965;43.238;27.864;2022-09-02T11:52:03;99985.94;;;26.49;100.00
9853;BME280;4965;43.238;27.864;2022-09-02T11:54:36;99979.16;;;26.75;100.00
9853;BME280;4965;43.238;27.864;2022-09-02T11:57:05;99971.25;;;26.85;100.00
9853;BME280;4965;43.238;27.864;2022-09-02T12:00:06;99976.78;;;26.90;100.00
9853;BME280;4965;43.238;27.864;2022-09-02T12:02:41;99974.31;;;26.77;100.00
9853;BME280;4965;43.238;27.864;2022-09-02T12:05:46;99967.25;;;26.76;100.00
9853;BME280;4965;43.238;27.864;2022-09-02T12:11:33;100018.75;;;26.99;100.00
9853;BME280;4965;43.238;27.864;2022-09-02T12:14:03;100004.56;;;26.45;100.00
9853;BME280;4965;43.238;27.864;2022-09-02T12:16:40;99985.81;;;26.56;100.00
9853;BME280;4965;43.238;27.864;2022-09-02T12:19:24;99972.13;;;26.50;100.00
9853;BME280;4965;43.238;27.864;2022-09-02T12:22:23;99954.19;;;26.61;100.00
9853;BME280;4965;43.238;27.864;2022-09-02T12:24:52;99997.75;;;26.31;100.00
9853;BME280;4965;43.238;27.864;2022-09-02T12:27:32;99963.19;;;26.03;100.00
9853;BME280;4965;43.238;27.864;2022-09-02T12:30:02;99964.00;;;25.81;100.00
9853;BME280;4965;43.238;27.864;2022-09-02T12:33:06;100013.19;;;25.66;100.00
9853;BME280;4965;43.238;27.864;2022-09-02T12:35:52;99958.38;;;25.82;100.00
9853;BME280;4965;43.238;27.864;2022-09-02T12:38:27;99988.66;;;25.91;100.00
9853;BME280;4965;43.238;27.864;2022-09-02T12:41:09;99927.75;;;25.93;100.00
9853;BME280;4965;43.238;27.864;2022-09-02T12:43:54;99951.53;;;26.38;100.00
9853;BME280;4965;43.238;27.864;2022-09-02T12:46:29;99975.91;;;26.49;100.00
9853;BME280;4965;43.238;27.864;2022-09-02T12:49:04;99954.00;;;26.39;100.00
9853;BME280;4965;43.238;27.864;2022-09-02T12:51:54;99948.75;;;26.21;100.00
9853;BME280;4965;43.238;27.864;2022-09-02T12:54:26;99987.59;;;26.27;100.00
9853;BME280;4965;43.238;27.864;2022-09-02T12:56:57;99924.44;;;25.80;100.00
9853;BME280;4965;43.238;27.864;2022-09-02T12:59:28;99929.50;;;26.11;100.00
9853;BME280;4965;43.238;27.864;2022-09-02T13:04:56;99973.47;;;26.36;100.00
9853;BME280;4965;43.238;27.864;2022-09-02T13:07:51;99941.03;;;26.41;100.00
9853;BME280;4965;43.238;27.864;2022-09-02T13:10:31;99944.81;;;26.52;100.00
9853;BME280;4965;43.238;27.864;2022-09-02T13:16:11;99917.56;;;26.98;100.00
9853;BME280;4965;43.238;27.864;2022-09-02T13:22:46;99911.66;;;27.18;100.00
9853;BME280;4965;43.238;27.864;2022-09-02T13:25:31;99952.38;;;27.18;100.00
9853;BME280;4965;43.238;27.864;2022-09-02T13:28:29;99873.91;;;26.72;100.00
9853;BME280;4965;43.238;27.864;2022-09-02T13:31:12;99917.69;;;26.80;100.00